Time;durP1;ratioP1;P1;durP2;ratioP2;P2;SDS_P1;SDS_P2;PMS_P1;PMS_P2;Temp;Humidity;BMP_temperature;BMP_pressure;BME280_temperature;BME280_humidity;BME280_pressure;Samples;Min_cycle;Max_cycle;Signal;HPM_P1;HPM_P2
2023/06/22 00:00:57;;;;;;;77.55;54.38;;;22.30;77.50;;;;;;4953461;28;95302;-82
2023/06/22 00:03:24;;;;;;;77.22;54.25;;;22.20;77.90;;;;;;4952315;28;95559;-82
2023/06/22 00:05:50;;;;;;;77.60;54.75;;;22.20;77.80;;;;;;4954948;28;94810;-81
2023/06/22 00:08:17;;;;;;;77.07;54.35;;;22.20;78.40;;;;;;4959356;28;94928;-82
2023/06/22 00:10:43;;;;;;;78.80;54.72;;;22.20;77.70;;;;;;4946024;28;93867;-82
2023/06/22 00:13:10;;;;;;;77.90;54.95;;;22.10;77.60;;;;;;4951492;28;98506;-82
2023/06/22 00:15:37;;;;;;;77.43;54.58;;;22.10;78.50;;;;;;4959935;28;95627;-82
2023/06/22 00:18:03;;;;;;;77.78;54.60;;;22.10;77.80;;;;;;4956424;28;95985;-82
2023/06/22 00:20:29;;;;;;;77.38;54.65;;;22.20;79.10;;;;;;4959602;28;94843;-81
2023/06/22 00:22:57;;;;;;;77.30;54.28;;;22.10;78.20;;;;;;4962015;28;98711;-82
2023/06/22 00:25:22;;;;;;;77.30;54.47;;;22.10;77.80;;;;;;4966476;28;98624;-82
2023/06/22 00:27:48;;;;;;;79.18;54.47;;;22.10;77.90;;;;;;4953680;28;94579;-82
2023/06/22 00:30:15;;;;;;;78.32;54.50;;;22.10;77.90;;;;;;4961685;28;95309;-81
2023/06/22 00:32:41;;;;;;;77.95;54.83;;;22.10;78.30;;;;;;4957672;28;97893;-81
2023/06/22 00:35:09;;;;;;;77.32;54.28;;;22.10;78.70;;;;;;4962571;28;97913;-82
2023/06/22 00:37:35;;;;;;;76.28;54.08;;;22.10;79.10;;;;;;4958460;28;95446;-82
2023/06/22 00:40:01;;;;;;;78.13;55.33;;;22.10;78.60;;;;;;4965017;28;95167;-81
2023/06/22 00:42:27;;;;;;;79.45;54.38;;;22.00;78.70;;;;;;4956553;28;99179;-81
2023/06/22 00:44:53;;;;;;;78.18;54.28;;;22.00;78.50;;;;;;4962648;28;98609;-82
2023/06/22 00:47:19;;;;;;;77.13;54.05;;;22.00;78.60;;;;;;4957875;28;95639;-81
2023/06/22 00:49:51;;;;;;;78.18;54.20;;;22.00;78.50;;;;;;4964505;28;95046;-81
2023/06/22 00:52:20;;;;;;;77.32;54.65;;;22.00;78.30;;;;;;4958024;28;94536;-81
2023/06/22 00:54:50;;;;;;;76.90;54.45;;;21.90;78.70;;;;;;4960256;28;98493;-81
2023/06/22 00:57:17;;;;;;;77.03;54.55;;;21.90;78.90;;;;;;4965223;28;94362;-82
2023/06/22 00:59:44;;;;;;;77.55;54.67;;;21.90;78.10;;;;;;4962718;28;94229;-82
2023/06/22 01:02:10;;;;;;;77.43;54.70;;;21.90;79.40;;;;;;4959319;28;98774;-81
2023/06/22 01:04:37;;;;;;;78.60;54.50;;;21.90;78.10;;;;;;4976691;28;98027;-82
2023/06/22 01:07:25;;;;;;;78.18;54.28;;;21.80;78.80;;;;;;4963854;28;96102;-81
2023/06/22 01:09:59;;;;;;;77.65;54.22;;;21.80;78.70;;;;;;4963095;28;94526;-82
2023/06/22 01:12:29;;;;;;;77.03;54.47;;;21.70;78.40;;;;;;4957622;28;95015;-81
2023/06/22 01:15:11;;;;;;;76.90;54.33;;;21.80;79.50;;;;;;4956738;28;98136;-81
2023/06/22 01:17:41;;;;;;;77.20;54.15;;;21.70;79.30;;;;;;4959236;28;94342;-81
2023/06/22 01:20:09;;;;;;;76.60;54.15;;;21.70;78.60;;;;;;4960880;28;94893;-81
2023/06/22 01:23:09;;;;;;;77.32;53.97;;;21.70;78.60;;;;;;4976912;28;99057;-81
2023/06/22 01:25:47;;;;;;;77.95;54.25;;;21.70;79.20;;;;;;4960004;28;98707;-81
2023/06/22 01:28:37;;;;;;;77.05;54.47;;;21.70;80.10;;;;;;4960464;28;95127;-81
2023/06/22 01:31:05;;;;;;;77.35;54.33;;;21.70;78.70;;;;;;4962775;28;95383;-82
2023/06/22 01:33:39;;;;;;;78.05;54.25;;;21.70;80.20;;;;;;4958251;28;98858;-81
2023/06/22 01:36:05;;;;;;;76.82;53.97;;;21.60;78.90;;;;;;4959873;28;98431;-82
2023/06/22 01:38:32;;;;;;;77.30;54.35;;;21.60;79.50;;;;;;4959184;28;95508;-81
2023/06/22 01:40:59;;;;;;;77.82;54.42;;;21.60;80.20;;;;;;4959170;28;94465;-81
2023/06/22 01:43:26;;;;;;;77.32;54.00;;;21.50;79.40;;;;;;4956252;28;97664;-81
2023/06/22 01:45:56;;;;;;;77.05;53.83;;;21.50;79.20;;;;;;4958280;28;97714;-81
2023/06/22 01:48:23;;;;;;;76.57;54.17;;;21.50;80.10;;;;;;4958286;28;95030;-81
2023/06/22 01:50:49;;;;;;;77.00;54.17;;;21.50;79.10;;;;;;4958005;28;94212;-80
2023/06/22 01:53:15;;;;;;;76.20;53.70;;;21.40;79.60;;;;;;4958153;28;99157;-81
2023/06/22 01:55:40;;;;;;;77.40;54.38;;;21.40;80.10;;;;;;4958414;28;95520;-81
2023/06/22 01:58:06;;;;;;;76.55;54.22;;;21.40;80.80;;;;;;4956568;28;95446;-82
2023/06/22 02:00:36;;;;;;;76.97;54.22;;;21.40;79.30;;;;;;4960143;28;95065;-82
2023/06/22 02:03:08;;;;;;;77.73;54.33;;;21.40;79.70;;;;;;4953167;28;98288;-81
2023/06/22 02:05:45;;;;;;;76.80;54.08;;;21.40;79.50;;;;;;4959422;28;97560;-81
2023/06/22 02:08:31;;;;;;;76.03;53.78;;;21.30;80.30;;;;;;4962329;28;94848;-82
2023/06/22 02:10:59;;;;;;;76.47;53.83;;;21.40;80.20;;;;;;4967330;28;95915;-81
2023/06/22 02:13:25;;;;;;;77.07;54.28;;;21.40;80.60;;;;;;4958379;28;94735;-81
2023/06/22 02:15:51;;;;;;;75.85;53.95;;;21.30;80.90;;;;;;4964331;28;97355;-81
2023/06/22 02:18:17;;;;;;;77.63;54.05;;;21.30;80.30;;;;;;4958435;28;94599;-82
2023/06/22 02:20:43;;;;;;;76.65;54.03;;;21.20;80.40;;;;;;4956805;28;98442;-81
2023/06/22 02:23:08;;;;;;;75.85;54.00;;;21.20;80.50;;;;;;4963564;28;99497;-81
2023/06/22 02:25:35;;;;;;;77.00;54.13;;;21.20;80.40;;;;;;4960334;28;99276;-81
2023/06/22 02:28:01;;;;;;;76.03;53.83;;;21.20;80.00;;;;;;4959726;28;95466;-81
2023/06/22 02:30:27;;;;;;;76.50;53.88;;;21.20;81.00;;;;;;4954281;28;94693;-82
2023/06/22 02:32:58;;;;;;;75.97;54.03;;;21.20;80.90;;;;;;4959163;28;97671;-81
2023/06/22 02:35:31;;;;;;;75.95;54.08;;;21.10;80.50;;;;;;4952684;28;97920;-81
2023/06/22 02:38:00;;;;;;;76.80;54.42;;;21.20;79.70;;;;;;4961266;28;98769;-81
2023/06/22 02:40:26;;;;;;;76.13;54.08;;;21.10;81.20;;;;;;4958368;28;94501;-81
2023/06/22 02:42:52;;;;;;;76.75;54.08;;;21.10;80.30;;;;;;4963729;28;98889;-81
2023/06/22 02:45:18;;;;;;;77.20;53.83;;;21.10;80.80;;;;;;4957323;28;98430;-81
2023/06/22 02:47:44;;;;;;;76.43;54.00;;;21.10;80.60;;;;;;4955992;28;95816;-81
2023/06/22 02:50:10;;;;;;;76.30;54.03;;;21.10;79.20;;;;;;4958414;28;95680;-81
2023/06/22 02:52:36;;;;;;;75.43;53.53;;;21.10;81.50;;;;;;4960157;28;98038;-81
2023/06/22 02:55:01;;;;;;;77.88;54.03;;;21.00;79.90;;;;;;4957659;28;97676;-81
2023/06/22 02:57:27;;;;;;;76.65;53.85;;;21.00;80.80;;;;;;4961368;28;94593;-81
2023/06/22 02:59:53;;;;;;;76.38;53.85;;;21.00;79.30;;;;;;4953287;28;94588;-80
2023/06/22 03:02:21;;;;;;;76.03;53.95;;;21.00;80.90;;;;;;4958436;28;94931;-83
2023/06/22 03:04:49;;;;;;;76.32;54.13;;;21.00;80.40;;;;;;4960438;28;97984;-82
2023/06/22 03:07:15;;;;;;;76.22;54.05;;;21.00;79.70;;;;;;4966313;28;94542;-81
2023/06/22 03:09:42;;;;;;;77.32;54.35;;;21.00;80.50;;;;;;4958553;28;94953;-81
2023/06/22 03:12:08;;;;;;;77.00;54.08;;;20.90;80.80;;;;;;4964348;28;96273;-81
2023/06/22 03:14:34;;;;;;;76.40;53.90;;;21.00;79.50;;;;;;4958503;28;96796;-81
2023/06/22 03:17:02;;;;;;;76.30;54.35;;;20.90;80.40;;;;;;4965513;28;94533;-82
2023/06/22 03:19:31;;;;;;;76.40;53.90;;;20.90;80.20;;;;;;4963425;28;94476;-82
2023/06/22 03:21:57;;;;;;;77.40;54.33;;;20.90;80.40;;;;;;4966799;28;95161;-81
2023/06/22 03:24:23;;;;;;;77.47;53.75;;;20.90;80.10;;;;;;4963998;28;97901;-81
2023/06/22 03:26:48;;;;;;;77.25;54.08;;;20.80;79.50;;;;;;4965249;28;94501;-81
2023/06/22 03:29:14;;;;;;;77.20;54.22;;;20.90;80.40;;;;;;4972902;28;94372;-82
2023/06/22 03:31:39;;;;;;;75.95;53.85;;;20.80;80.90;;;;;;4960027;28;97739;-81
2023/06/22 03:34:05;;;;;;;76.80;54.20;;;20.80;80.10;;;;;;4960689;28;97677;-81
2023/06/22 03:36:31;;;;;;;76.75;54.20;;;20.80;80.00;;;;;;4960111;28;96615;-82
2023/06/22 03:38:57;;;;;;;76.38;54.33;;;20.80;79.90;;;;;;4959642;28;95672;-81
2023/06/22 03:41:22;;;;;;;76.25;54.35;;;20.80;81.70;;;;;;4959189;28;97913;-82
2023/06/22 03:43:48;;;;;;;77.63;54.25;;;20.70;81.20;;;;;;4955623;28;94760;-81
2023/06/22 03:46:13;;;;;;;77.82;54.72;;;20.80;79.70;;;;;;4954150;28;98964;-82
2023/06/22 03:48:39;;;;;;;76.35;54.17;;;20.70;79.70;;;;;;4960253;28;94791;-82
2023/06/22 03:51:05;;;;;;;76.93;54.35;;;20.70;82.10;;;;;;4956374;28;95145;-82
2023/06/22 03:53:31;;;;;;;78.32;54.78;;;20.70;79.00;;;;;;4962042;28;94090;-81
2023/06/22 03:55:57;;;;;;;77.57;54.78;;;20.70;81.30;;;;;;4956225;28;95450;-82
2023/06/22 03:58:22;;;;;;;77.10;54.65;;;20.70;81.60;;;;;;4959998;28;94651;-82
2023/06/22 04:00:49;;;;;;;77.80;54.35;;;20.80;79.40;;;;;;4967930;28;98531;-82
2023/06/22 04:03:15;;;;;;;79.57;55.65;;;20.70;80.50;;;;;;4957672;28;95929;-82
2023/06/22 04:05:42;;;;;;;76.22;54.15;;;20.70;79.30;;;;;;4962080;28;95116;-82
2023/06/22 04:08:07;;;;;;;76.90;54.67;;;20.70;81.00;;;;;;4967564;28;94710;-81
2023/06/22 04:10:33;;;;;;;77.35;54.38;;;20.70;80.10;;;;;;4964373;28;95442;-81
2023/06/22 04:12:59;;;;;;;77.18;54.60;;;20.70;79.90;;;;;;4966400;28;97808;-81
2023/06/22 04:15:25;;;;;;;77.13;54.15;;;20.70;79.40;;;;;;4952098;28;98737;-82
2023/06/22 04:17:51;;;;;;;76.20;53.65;;;20.80;79.10;;;;;;4966117;28;94223;-81
2023/06/22 04:20:16;;;;;;;75.47;53.75;;;20.70;79.80;;;;;;4961166;28;99546;-82
2023/06/22 04:22:42;;;;;;;77.18;54.28;;;20.70;79.80;;;;;;4967063;28;97713;-82
2023/06/22 04:25:08;;;;;;;76.30;54.38;;;20.80;79.70;;;;;;4965998;28;95466;-82
2023/06/22 04:27:40;;;;;;;76.57;54.45;;;20.80;79.20;;;;;;4953358;28;94614;-81
2023/06/22 04:30:08;;;;;;;76.70;54.20;;;20.80;79.00;;;;;;4963315;28;97245;-82
2023/06/22 04:32:39;;;;;;;75.57;54.45;;;20.80;78.70;;;;;;4961979;28;96011;-81
2023/06/22 04:35:06;;;;;;;79.63;54.67;;;20.90;78.90;;;;;;4961101;28;94955;-83
2023/06/22 04:37:32;;;;;;;76.40;53.58;;;20.90;81.30;;;;;;4956990;28;95169;-82
2023/06/22 04:39:57;;;;;;;80.32;54.13;;;21.00;81.80;;;;;;4965128;28;98822;-82
2023/06/22 04:42:24;;;;;;;77.07;54.25;;;21.00;79.20;;;;;;4961920;28;97831;-81
2023/06/22 04:44:50;;;;;;;77.68;54.55;;;21.00;78.60;;;;;;4964026;28;94540;-81
2023/06/22 04:47:16;;;;;;;75.95;54.25;;;21.00;79.00;;;;;;4964421;28;97231;-81
2023/06/22 04:49:43;;;;;;;77.05;54.38;;;21.00;78.80;;;;;;4963872;28;98821;-81
2023/06/22 04:52:10;;;;;;;77.53;54.70;;;21.10;78.10;;;;;;4958929;28;99097;-81
2023/06/22 04:54:37;;;;;;;76.57;54.22;;;21.10;78.10;;;;;;4962032;28;96450;-81
2023/06/22 04:57:09;;;;;;;76.18;53.85;;;21.10;78.90;;;;;;4961707;28;94372;-82
2023/06/22 04:59:38;;;;;;;77.32;54.78;;;21.10;79.60;;;;;;4962982;28;98224;-82
2023/06/22 05:02:05;;;;;;;77.90;54.85;;;21.20;77.80;;;;;;4961742;28;97299;-81
2023/06/22 05:04:32;;;;;;;78.80;54.67;;;21.20;78.30;;;;;;4963137;28;94412;-82
2023/06/22 05:06:58;;;;;;;78.07;54.90;;;21.30;78.80;;;;;;4963854;28;93749;-82
2023/06/22 05:09:24;;;;;;;78.38;54.97;;;21.30;78.30;;;;;;4965905;28;96727;-82
2023/06/22 05:11:51;;;;;;;77.03;54.78;;;21.30;77.10;;;;;;4964470;28;95199;-82
2023/06/22 05:14:17;;;;;;;77.25;54.03;;;21.30;79.30;;;;;;4966886;28;96518;-81
2023/06/22 05:16:43;;;;;;;77.32;54.17;;;21.40;78.20;;;;;;4962642;28;96125;-81
2023/06/22 05:19:09;;;;;;;77.22;54.00;;;21.40;76.90;;;;;;4965614;28;94763;-81
2023/06/22 05:21:35;;;;;;;77.45;54.60;;;21.50;78.50;;;;;;4967732;28;98474;-81
2023/06/22 05:24:02;;;;;;;78.68;55.13;;;21.50;77.40;;;;;;4965648;28;94946;-82
2023/06/22 05:26:32;;;;;;;78.45;55.20;;;21.50;77.10;;;;;;4962723;28;95072;-81
2023/06/22 05:29:00;;;;;;;79.55;55.85;;;21.50;77.10;;;;;;4959054;28;94930;-81
2023/06/22 05:31:26;;;;;;;79.85;55.42;;;21.50;76.30;;;;;;4971188;28;97884;-82
2023/06/22 05:33:53;;;;;;;80.68;54.25;;;21.50;76.80;;;;;;4964974;28;95056;-82
2023/06/22 05:36:19;;;;;;;79.72;56.05;;;21.50;77.30;;;;;;4966698;28;95165;-81
2023/06/22 05:38:46;;;;;;;79.95;55.25;;;21.50;76.70;;;;;;4963792;28;95966;-82
2023/06/22 05:41:11;;;;;;;80.72;55.30;;;21.50;77.30;;;;;;4964253;28;99494;-81
2023/06/22 05:43:37;;;;;;;80.18;55.22;;;21.50;76.20;;;;;;4957216;28;94502;-81
2023/06/22 05:46:04;;;;;;;82.53;55.22;;;21.50;76.50;;;;;;4960849;28;95779;-81
2023/06/22 05:48:30;;;;;;;78.32;54.75;;;21.60;77.20;;;;;;4964804;28;98432;-81
2023/06/22 05:50:55;;;;;;;78.25;54.60;;;21.70;76.20;;;;;;4970806;28;94838;-81
2023/06/22 05:53:21;;;;;;;79.15;55.45;;;21.60;77.00;;;;;;4965672;28;95779;-82
2023/06/22 05:55:46;;;;;;;79.53;54.40;;;21.70;75.80;;;;;;4970642;28;93514;-81
2023/06/22 05:58:13;;;;;;;80.97;56.38;;;21.70;77.40;;;;;;4962701;28;97722;-86
2023/06/22 06:00:39;;;;;;;82.70;57.13;;;21.80;75.20;;;;;;4968338;28;97601;-87
2023/06/22 06:03:06;;;;;;;83.57;57.55;;;21.70;71.30;;;;;;4968014;28;96797;-86
2023/06/22 06:05:33;;;;;;;80.88;57.70;;;21.60;68.80;;;;;;4966625;28;95344;-87
2023/06/22 06:08:04;;;;;;;82.00;57.55;;;21.50;69.10;;;;;;4975987;28;98130;-84
2023/06/22 06:10:30;;;;;;;81.63;56.63;;;21.60;69.90;;;;;;4959531;28;98608;-87
2023/06/22 06:12:56;;;;;;;81.40;57.22;;;21.40;69.30;;;;;;4963349;28;94439;-87
2023/06/22 06:15:22;;;;;;;81.00;57.10;;;21.60;68.70;;;;;;4971408;28;95481;-87
2023/06/22 06:17:52;;;;;;;81.93;56.65;;;21.40;69.30;;;;;;4969709;28;95532;-86
2023/06/22 06:20:22;;;;;;;81.45;57.15;;;21.60;69.40;;;;;;4956040;28;96870;-88
2023/06/22 06:22:48;;;;;;;82.20;56.72;;;21.70;69.30;;;;;;4962465;28;94360;-86
2023/06/22 06:25:18;;;;;;;82.28;57.13;;;21.70;68.60;;;;;;4960402;28;94426;-87
2023/06/22 06:27:48;;;;;;;80.68;56.92;;;21.70;69.50;;;;;;4970094;28;99917;-86
2023/06/22 06:30:16;;;;;;;83.43;56.80;;;21.70;69.00;;;;;;4962428;28;95592;-87
2023/06/22 06:32:42;;;;;;;81.95;57.78;;;21.70;68.90;;;;;;4962895;28;94359;-86
2023/06/22 06:35:09;;;;;;;83.95;57.33;;;21.50;69.00;;;;;;4965027;28;94401;-87
2023/06/22 06:37:43;;;;;;;80.88;57.38;;;21.50;69.60;;;;;;4964046;28;95431;-86
2023/06/22 06:40:10;;;;;;;85.05;57.65;;;21.70;69.60;;;;;;4966719;28;96766;-87
2023/06/22 06:42:46;;;;;;;82.90;58.08;;;21.90;68.70;;;;;;4961048;28;94595;-86
2023/06/22 06:45:16;;;;;;;83.70;58.42;;;21.80;68.30;;;;;;4963250;28;95011;-86
2023/06/22 06:47:41;;;;;;;81.07;57.65;;;21.80;69.10;;;;;;4965145;28;97828;-86
2023/06/22 06:50:08;;;;;;;84.25;57.80;;;21.90;69.20;;;;;;4965821;28;94818;-87
2023/06/22 06:52:33;;;;;;;84.03;58.45;;;22.10;69.00;;;;;;4964377;28;95392;-87
2023/06/22 06:54:59;;;;;;;81.55;58.15;;;22.10;68.20;;;;;;4965548;28;93825;-86
2023/06/22 06:57:28;;;;;;;87.35;58.88;;;21.90;69.90;;;;;;4967501;28;94884;-87
2023/06/22 06:59:56;;;;;;;90.00;59.60;;;22.00;68.60;;;;;;4965974;28;96807;-86
2023/06/22 07:02:22;;;;;;;85.22;58.90;;;22.00;68.40;;;;;;4969123;28;93963;-87
2023/06/22 07:04:48;;;;;;;85.07;58.63;;;21.90;69.60;;;;;;4969515;28;94657;-87
2023/06/22 07:07:14;;;;;;;89.57;60.05;;;22.10;69.80;;;;;;4981140;28;94919;-87
2023/06/22 07:09:40;;;;;;;87.05;60.25;;;22.00;69.80;;;;;;4997740;28;97230;-87
2023/06/22 07:12:06;;;;;;;91.63;60.03;;;22.10;69.40;;;;;;4995533;28;93960;-86
2023/06/22 07:14:32;;;;;;;90.20;60.25;;;22.20;70.10;;;;;;4974243;28;94356;-87
2023/06/22 07:16:58;;;;;;;86.57;59.72;;;22.30;71.40;;;;;;4965260;28;95580;-87
2023/06/22 07:19:26;;;;;;;87.10;61.08;;;22.20;71.10;;;;;;4963938;28;98626;-86
2023/06/22 07:21:53;;;;;;;87.43;59.58;;;22.20;70.80;;;;;;4964519;28;94797;-86
2023/06/22 07:24:22;;;;;;;88.05;60.40;;;22.30;71.40;;;;;;4969183;28;94459;-87
2023/06/22 07:26:49;;;;;;;86.57;61.20;;;22.40;72.10;;;;;;4962471;28;94710;-86
2023/06/22 07:29:16;;;;;;;88.07;61.28;;;22.40;71.00;;;;;;4968635;28;97577;-86
2023/06/22 07:31:42;;;;;;;86.65;59.88;;;22.40;71.50;;;;;;4956739;28;94387;-86
2023/06/22 07:34:07;;;;;;;87.25;61.53;;;22.50;71.40;;;;;;4967610;28;93570;-87
2023/06/22 07:36:35;;;;;;;89.65;60.67;;;22.40;70.80;;;;;;4966739;28;97962;-87
2023/06/22 07:39:02;;;;;;;88.28;60.88;;;22.40;71.40;;;;;;4963625;28;97908;-87
2023/06/22 07:41:28;;;;;;;90.10;61.72;;;22.50;71.70;;;;;;4966888;28;95033;-86
2023/06/22 07:43:54;;;;;;;86.65;61.72;;;22.50;72.20;;;;;;4967260;28;95033;-87
2023/06/22 07:46:19;;;;;;;86.68;60.97;;;22.40;72.40;;;;;;4964733;28;94592;-87
2023/06/22 07:48:45;;;;;;;89.32;61.55;;;22.40;73.30;;;;;;4964475;28;98428;-87
2023/06/22 07:51:13;;;;;;;88.90;62.30;;;22.50;73.40;;;;;;4965547;28;94167;-87
2023/06/22 07:53:43;;;;;;;84.63;60.00;;;22.40;73.40;;;;;;4973156;28;94227;-88
2023/06/22 07:56:13;;;;;;;91.93;62.42;;;22.40;73.60;;;;;;4979316;28;97293;-90
2023/06/22 07:58:39;;;;;;;91.97;63.10;;;22.30;73.50;;;;;;4982743;28;96481;-88
2023/06/22 08:01:05;;;;;;;88.45;61.25;;;22.20;73.20;;;;;;4980011;28;94299;-89
2023/06/22 08:03:31;;;;;;;85.72;60.75;;;22.20;74.20;;;;;;4967371;22;94617;-41
2023/06/22 08:05:57;;;;;;;87.28;60.35;;;22.20;74.00;;;;;;4899241;28;96576;-43
2023/06/22 08:08:23;;;;;;;87.50;60.88;;;22.30;74.30;;;;;;4910678;28;96171;-42
2023/06/22 08:10:49;;;;;;;87.85;61.40;;;22.10;73.80;;;;;;4908750;28;94806;-41
2023/06/22 08:13:15;;;;;;;86.53;61.35;;;22.00;74.20;;;;;;4910159;28;96214;-42
2023/06/22 08:15:40;;;;;;;88.25;62.15;;;22.10;74.60;;;;;;4912405;28;94660;-43
2023/06/22 08:18:06;;;;;;;87.80;61.70;;;22.00;74.90;;;;;;4913869;28;95629;-42
2023/06/22 08:20:32;;;;;;;88.95;62.60;;;22.00;75.10;;;;;;4908778;28;95175;-41
2023/06/22 08:23:00;;;;;;;90.68;63.65;;;22.00;75.40;;;;;;4911749;28;94044;-41
2023/06/22 08:25:26;;;;;;;89.20;64.18;;;21.90;75.40;;;;;;4911996;28;95232;-41
2023/06/22 08:27:51;;;;;;;91.50;64.18;;;21.80;76.00;;;;;;4913214;28;94628;-41
2023/06/22 08:30:18;;;;;;;90.63;62.30;;;21.80;76.20;;;;;;4913977;28;96530;-42
2023/06/22 08:32:44;;;;;;;88.43;61.83;;;21.90;76.10;;;;;;4919772;28;94631;-41
2023/06/22 08:35:10;;;;;;;89.10;62.35;;;22.00;75.60;;;;;;4914930;28;95085;-42
2023/06/22 08:37:36;;;;;;;87.00;63.47;;;22.10;75.50;;;;;;4916191;28;94922;-42
2023/06/22 08:40:10;;;;;;;91.82;63.75;;;22.00;75.60;;;;;;4915605;28;95867;-41
2023/06/22 08:42:37;;;;;;;88.00;62.72;;;21.90;75.50;;;;;;4904415;28;94957;-42
2023/06/22 08:45:04;;;;;;;85.93;61.10;;;22.00;75.60;;;;;;4918921;28;95883;-42
2023/06/22 08:47:29;;;;;;;89.10;63.42;;;21.90;75.90;;;;;;4911005;28;94077;-41
2023/06/22 08:49:55;;;;;;;90.88;63.83;;;22.00;76.10;;;;;;4919189;28;94698;-42
2023/06/22 08:52:21;;;;;;;88.72;63.63;;;21.90;76.60;;;;;;4923697;28;94652;-41
2023/06/22 08:54:49;;;;;;;88.43;62.55;;;21.80;76.80;;;;;;4913779;28;95818;-43
2023/06/22 08:57:15;;;;;;;91.30;64.32;;;21.80;77.10;;;;;;4923964;28;95028;-41
2023/06/22 08:59:42;;;;;;;86.85;61.17;;;21.80;77.30;;;;;;4923995;28;94936;-42
2023/06/22 09:02:07;;;;;;;90.93;65.25;;;21.80;77.30;;;;;;4920204;28;94515;-41
2023/06/22 09:04:36;;;;;;;91.35;64.28;;;21.80;78.00;;;;;;4916669;28;95312;-41
2023/06/22 09:07:02;;;;;;;91.80;65.13;;;21.80;77.90;;;;;;4911698;28;94656;-44
2023/06/22 09:09:28;;;;;;;92.65;64.65;;;21.80;77.90;;;;;;4914042;28;94715;-41
2023/06/22 09:11:54;;;;;;;90.95;63.78;;;21.90;77.60;;;;;;4914303;28;94998;-42
2023/06/22 09:14:19;;;;;;;90.18;63.88;;;21.80;78.00;;;;;;4910094;28;95842;-44
2023/06/22 09:16:45;;;;;;;92.32;65.22;;;21.70;78.40;;;;;;4906395;28;98363;-42
2023/06/22 09:19:10;;;;;;;91.57;65.18;;;21.70;78.30;;;;;;4912766;28;98820;-42
2023/06/22 09:21:36;;;;;;;94.68;65.10;;;21.70;79.00;;;;;;4911158;28;95039;-42
2023/06/22 09:24:02;;;;;;;90.93;64.75;;;21.70;78.90;;;;;;4911871;28;95579;-43
2023/06/22 09:26:28;;;;;;;96.07;66.40;;;21.70;79.50;;;;;;4910584;28;95838;-43
2023/06/22 09:28:54;;;;;;;93.97;65.70;;;21.80;79.40;;;;;;4910829;28;94654;-44
2023/06/22 09:31:25;;;;;;;92.45;64.47;;;21.80;79.40;;;;;;4908689;28;95210;-45
2023/06/22 09:33:51;;;;;;;;;;;21.80;79.90;;;;;;4914916;28;94866;-44
2023/06/22 09:36:17;;;;;;;91.05;62.85;;;21.70;80.10;;;;;;4915753;28;95358;-44
2023/06/22 09:38:42;;;;;;;90.20;66.05;;;21.70;81.40;;;;;;4917251;28;94969;-44
2023/06/22 09:41:08;;;;;;;89.45;66.25;;;21.80;85.90;;;;;;4917193;28;94728;-43
2023/06/22 09:43:36;;;;;;;85.57;62.30;;;21.80;87.30;;;;;;4910824;28;96463;-46
2023/06/22 09:46:02;;;;;;;89.63;62.80;;;21.80;85.80;;;;;;4913884;28;97054;-43
2023/06/22 09:48:29;;;;;;;90.97;64.05;;;21.80;88.00;;;;;;4913054;28;94491;-43
2023/06/22 09:50:54;;;;;;;92.35;65.72;;;21.80;86.20;;;;;;4915851;28;95091;-43
2023/06/22 09:53:20;;;;;;;94.95;66.80;;;21.80;87.40;;;;;;4911212;28;96268;-43
2023/06/22 09:55:46;;;;;;;81.63;58.75;;;21.80;87.00;;;;;;4907285;28;95204;-45
2023/06/22 09:58:12;;;;;;;91.63;67.20;;;21.80;85.50;;;;;;4897973;28;94851;-42
2023/06/22 10:00:37;;;;;;;90.18;63.25;;;21.90;87.20;;;;;;4910980;28;94153;-43
2023/06/22 10:03:03;;;;;;;88.47;63.67;;;21.90;86.00;;;;;;4905522;28;96169;-43
2023/06/22 10:05:29;;;;;;;90.18;64.22;;;21.90;85.40;;;;;;4917737;28;94904;-43
2023/06/22 10:07:54;;;;;;;87.95;62.67;;;21.90;85.40;;;;;;4894264;28;95801;-44
2023/06/22 10:10:20;;;;;;;90.43;65.20;;;21.90;84.80;;;;;;4914933;28;94630;-43
2023/06/22 10:12:48;;;;;;;91.85;65.22;;;22.00;84.30;;;;;;4893969;28;96227;-42
2023/06/22 10:15:14;;;;;;;88.57;62.45;;;22.10;85.00;;;;;;4917606;28;95163;-44
2023/06/22 10:17:40;;;;;;;92.07;66.75;;;22.10;84.30;;;;;;4910183;28;94861;-45
2023/06/22 10:20:13;;;;;;;97.57;68.10;;;22.10;84.40;;;;;;4913106;28;94970;-44
2023/06/22 10:22:43;;;;;;;84.47;60.85;;;22.10;84.40;;;;;;4915220;28;95701;-42
2023/06/22 10:25:10;;;;;;;92.45;66.00;;;22.00;84.90;;;;;;4917656;28;93908;-42
2023/06/22 10:27:39;;;;;;;87.97;61.92;;;22.00;85.90;;;;;;4922139;28;95820;-42
2023/06/22 10:30:07;;;;;;;90.85;64.80;;;22.00;84.50;;;;;;4917226;28;94977;-42
2023/06/22 10:32:32;;;;;;;90.00;64.63;;;22.10;83.00;;;;;;4913706;28;97130;-42
2023/06/22 10:34:58;;;;;;;92.38;65.90;;;22.20;84.40;;;;;;4910437;28;96073;-42
2023/06/22 10:37:24;;;;;;;89.05;63.53;;;22.20;82.70;;;;;;4910744;28;98803;-41
2023/06/22 10:39:50;;;;;;;91.22;65.60;;;22.20;82.40;;;;;;4915916;28;94825;-42
2023/06/22 10:42:15;;;;;;;95.13;66.53;;;22.10;83.70;;;;;;4896881;28;95374;-41
2023/06/22 10:44:43;;;;;;;89.43;64.05;;;22.20;83.20;;;;;;4912189;28;94935;-41
2023/06/22 10:47:08;;;;;;;91.50;67.03;;;22.20;82.60;;;;;;4908105;28;94943;-42
2023/06/22 10:49:34;;;;;;;90.00;65.30;;;22.20;82.90;;;;;;4920658;28;95252;-42
2023/06/22 10:52:00;;;;;;;89.80;65.50;;;22.20;83.20;;;;;;4913997;28;94647;-42
2023/06/22 10:54:25;;;;;;;92.63;67.68;;;22.10;83.40;;;;;;4915090;28;94994;-42
2023/06/22 10:56:51;;;;;;;91.90;65.70;;;22.10;83.50;;;;;;4907138;28;95794;-43
2023/06/22 10:59:16;;;;;;;88.68;64.10;;;22.00;82.60;;;;;;4916223;28;95048;-42
2023/06/22 11:01:42;;;;;;;94.97;64.70;;;22.10;83.40;;;;;;4876110;28;98982;-42
2023/06/22 11:04:08;;;;;;;88.55;62.00;;;22.00;82.00;;;;;;4914440;28;94652;-41
2023/06/22 11:06:33;;;;;;;88.47;64.60;;;22.10;81.40;;;;;;4919618;28;95032;-42
2023/06/22 11:08:59;;;;;;;89.70;65.80;;;22.10;81.10;;;;;;4915098;28;94665;-43
2023/06/22 11:11:26;;;;;;;92.15;66.85;;;22.10;79.00;;;;;;4909830;28;95984;-41
2023/06/22 11:13:52;;;;;;;85.85;62.20;;;22.10;81.50;;;;;;4915368;28;95922;-43
2023/06/22 11:16:18;;;;;;;89.32;64.65;;;22.10;82.00;;;;;;4918099;28;98987;-42
2023/06/22 11:18:44;;;;;;;91.22;67.53;;;22.00;82.20;;;;;;4896162;28;95516;-41
2023/06/22 11:21:09;;;;;;;90.97;64.53;;;21.90;82.80;;;;;;4914065;28;96486;-42
2023/06/22 11:23:36;;;;;;;89.53;65.28;;;21.90;83.40;;;;;;4910950;28;94786;-43
2023/06/22 11:26:02;;;;;;;93.07;66.93;;;22.10;83.40;;;;;;4909923;28;94760;-43
2023/06/22 11:28:27;;;;;;;90.35;63.47;;;22.10;82.40;;;;;;4912471;28;94911;-42
2023/06/22 11:30:53;;;;;;;89.82;66.03;;;22.00;82.30;;;;;;4917044;28;94800;-42
2023/06/22 11:33:19;;;;;;;91.15;67.60;;;22.10;83.00;;;;;;4914297;28;95059;-41
2023/06/22 11:35:44;;;;;;;89.93;67.18;;;22.10;81.90;;;;;;4915536;28;94656;-42
2023/06/22 11:38:10;;;;;;;88.22;63.70;;;22.00;81.20;;;;;;4914274;28;93764;-42
2023/06/22 11:40:36;;;;;;;95.00;67.60;;;22.10;82.90;;;;;;4915462;28;94576;-42
2023/06/22 11:43:01;;;;;;;92.95;66.57;;;22.20;81.40;;;;;;4916181;28;97466;-42
2023/06/22 11:45:27;;;;;;;89.80;64.53;;;22.20;81.80;;;;;;4917535;28;95650;-42
2023/06/22 11:47:53;;;;;;;91.90;67.95;;;22.30;81.20;;;;;;4913762;28;95254;-41
2023/06/22 11:50:18;;;;;;;94.68;66.45;;;22.10;80.30;;;;;;4919755;28;95160;-42
2023/06/22 11:52:44;;;;;;;91.85;68.25;;;22.20;82.40;;;;;;4915216;28;94982;-43
2023/06/22 11:55:10;;;;;;;93.03;66.78;;;22.30;81.00;;;;;;4915510;28;94900;-42
2023/06/22 11:57:37;;;;;;;89.85;64.32;;;22.40;80.40;;;;;;4916088;28;94598;-42
2023/06/22 12:00:16;;;;;;;91.78;66.75;;;22.40;80.60;;;;;;4917302;28;95385;-43
2023/06/22 12:02:41;;;;;;;90.20;65.40;;;22.40;79.00;;;;;;4909669;28;94627;-43
2023/06/22 12:05:07;;;;;;;85.07;62.22;;;22.20;78.40;;;;;;4899206;28;95030;-42
2023/06/22 12:07:33;;;;;;;92.75;66.40;;;22.20;80.60;;;;;;4913124;28;95087;-43
2023/06/22 12:09:59;;;;;;;91.85;66.63;;;22.10;80.50;;;;;;4908276;28;95685;-42
2023/06/22 12:12:24;;;;;;;92.25;66.75;;;22.10;80.30;;;;;;4913494;28;95970;-42
2023/06/22 12:14:50;;;;;;;88.53;64.50;;;22.30;78.80;;;;;;4908431;28;95426;-42
2023/06/22 12:17:16;;;;;;;89.53;63.42;;;22.40;79.50;;;;;;4914983;28;95342;-43
2023/06/22 12:19:41;;;;;;;88.25;64.38;;;22.50;78.90;;;;;;4917624;28;97107;-42
2023/06/22 12:22:07;;;;;;;88.93;64.10;;;22.40;79.10;;;;;;4918710;28;94942;-42
2023/06/22 12:24:32;;;;;;;86.07;63.38;;;22.30;79.00;;;;;;4915340;28;95730;-42
2023/06/22 12:26:58;;;;;;;88.00;64.43;;;22.10;80.40;;;;;;4916122;28;94045;-42